createdAt,value
2019-03-24T00:00:02.915Z,6.36
2019-03-24T00:10:02.860Z,6.19
2019-03-24T00:20:02.754Z,6.03
2019-03-24T00:30:03.394Z,5.84
2019-03-24T00:40:02.455Z,5.62
2019-03-24T00:50:02.494Z,5.61
2019-03-24T01:00:03.890Z,5.59
2019-03-24T01:10:02.564Z,5.65
2019-03-24T01:20:03.167Z,5.23
2019-03-24T01:30:03.457Z,5.05
2019-03-24T01:40:02.404Z,5.07
2019-03-24T01:50:02.124Z,4.95
2019-03-24T02:00:03.482Z,4.80
2019-03-24T02:10:03.017Z,4.86
2019-03-24T02:20:02.898Z,5.00
2019-03-24T02:30:03.642Z,4.94
2019-03-24T02:40:02.523Z,4.71
2019-03-24T02:50:03.105Z,4.72
2019-03-24T03:00:03.481Z,3.84
2019-03-24T03:10:02.821Z,3.41
2019-03-24T03:20:02.840Z,3.28
2019-03-24T03:30:03.236Z,3.29
2019-03-24T03:40:03.447Z,3.73
2019-03-24T03:50:02.231Z,3.68
2019-03-24T04:00:03.229Z,3.85
2019-03-24T04:10:02.863Z,3.81
2019-03-24T04:20:02.550Z,3.69
2019-03-24T04:30:02.701Z,3.53
2019-03-24T04:40:02.475Z,3.50
2019-03-24T04:50:02.967Z,3.62
2019-03-24T05:00:03.055Z,3.50
2019-03-24T05:10:03.065Z,3.05
2019-03-24T05:20:02.971Z,2.90
2019-03-24T05:30:02.628Z,2.97
2019-03-24T05:40:02.725Z,3.59
2019-03-24T05:50:02.750Z,4.20
2019-03-24T06:00:03.004Z,4.72
2019-03-24T06:10:03.037Z,5.36
2019-03-24T06:20:02.898Z,5.64
2019-03-24T06:30:03.299Z,6.16
2019-03-24T06:40:02.217Z,6.62
2019-03-24T06:50:02.207Z,7.65
2019-03-24T07:00:03.588Z,8.39
2019-03-24T07:10:03.273Z,9.35
2019-03-24T07:20:04.497Z,9.81
2019-03-24T07:30:03.629Z,9.92
2019-03-24T07:40:02.804Z,10.34
2019-03-24T07:50:02.502Z,10.65
2019-03-24T08:00:03.485Z,11.66
2019-03-24T08:10:02.370Z,11.89
2019-03-24T08:20:02.405Z,12.49
2019-03-24T08:30:02.683Z,13.08
2019-03-24T08:40:02.603Z,12.62
2019-03-24T08:50:02.265Z,13.38
2019-03-24T09:00:03.940Z,13.67
2019-03-24T09:10:03.218Z,14.19
2019-03-24T09:20:03.332Z,14.35
2019-03-24T09:30:03.635Z,14.38
2019-03-24T09:40:02.721Z,14.89
2019-03-24T09:50:02.533Z,15.43
2019-03-24T10:00:03.158Z,16.25
2019-03-24T10:10:02.899Z,16.77
2019-03-24T10:20:02.690Z,16.99
2019-03-24T10:30:03.341Z,17.16
2019-03-24T10:40:03.067Z,17.16
2019-03-24T10:50:02.780Z,17.73
2019-03-24T11:00:03.169Z,18.05
2019-03-24T11:10:02.208Z,17.94
2019-03-24T11:20:03.142Z,18.15
2019-03-24T11:30:03.411Z,18.56
2019-03-24T11:40:02.528Z,18.25
2019-03-24T11:50:02.176Z,18.54
2019-03-24T12:00:03.273Z,18.58
2019-03-24T12:10:02.981Z,18.38
2019-03-24T12:20:02.987Z,18.44
2019-03-24T12:30:03.164Z,19.00
2019-03-24T12:40:02.638Z,18.82
2019-03-24T12:50:08.558Z,19.06
2019-03-24T13:00:03.657Z,18.79
2019-03-24T13:10:02.416Z,18.78
2019-03-24T13:20:02.381Z,18.33
2019-03-24T13:30:03.000Z,18.20
2019-03-24T13:40:03.083Z,18.63
2019-03-24T13:50:02.503Z,18.29
2019-03-24T14:00:03.354Z,18.38
2019-03-24T14:10:02.390Z,18.52
2019-03-24T14:20:03.261Z,18.36
2019-03-24T14:30:02.734Z,18.21
2019-03-24T14:40:02.695Z,18.45
2019-03-24T14:50:02.209Z,18.25
2019-03-24T15:00:03.121Z,18.57
2019-03-24T15:10:02.213Z,18.06
2019-03-24T15:20:03.131Z,18.32
2019-03-24T15:30:03.556Z,18.11
2019-03-24T15:40:02.414Z,17.76
2019-03-24T15:50:02.185Z,18.07
2019-03-24T16:00:02.996Z,17.81
2019-03-24T16:10:02.941Z,17.36
2019-03-24T16:20:02.806Z,17.35
2019-03-24T16:30:03.674Z,17.14
2019-03-24T16:40:02.957Z,16.32
2019-03-24T16:50:02.650Z,15.95
2019-03-24T17:00:03.593Z,15.56
2019-03-24T17:10:03.147Z,15.16
2019-03-24T17:20:02.885Z,14.95
2019-03-24T17:30:03.656Z,14.87
2019-03-24T17:40:02.465Z,14.75
2019-03-24T17:50:02.966Z,14.87
2019-03-24T18:00:02.795Z,14.64
2019-03-24T18:10:03.037Z,14.27
2019-03-24T18:20:03.000Z,13.68
2019-03-24T18:30:03.752Z,13.36
2019-03-24T18:40:02.205Z,12.98
2019-03-24T18:50:03.298Z,12.62
2019-03-24T19:00:03.332Z,12.29
2019-03-24T19:10:03.552Z,12.12
2019-03-24T19:20:02.412Z,12.19
2019-03-24T19:30:02.771Z,12.19
2019-03-24T19:40:02.565Z,12.05
2019-03-24T19:50:03.042Z,11.83
2019-03-24T20:00:02.753Z,11.66
2019-03-24T20:10:02.477Z,11.53
2019-03-24T20:20:02.603Z,11.31
2019-03-24T20:30:02.887Z,11.01
2019-03-24T20:40:02.933Z,10.69
2019-03-24T20:50:03.794Z,10.41
2019-03-24T21:00:03.307Z,10.23
2019-03-24T21:10:02.810Z,10.11
2019-03-24T21:20:02.872Z,9.96
2019-03-24T21:30:03.230Z,9.76
2019-03-24T21:40:06.033Z,9.39
2019-03-24T21:50:02.777Z,9.22
2019-03-24T22:00:03.443Z,9.00
2019-03-24T22:10:02.202Z,8.69
2019-03-24T22:20:03.102Z,8.54
2019-03-24T22:30:03.393Z,8.36
2019-03-24T22:40:02.645Z,8.18
2019-03-24T22:50:02.299Z,8.11
2019-03-24T23:00:02.952Z,8.06
2019-03-24T23:10:02.792Z,8.18
2019-03-24T23:20:02.915Z,8.16
2019-03-24T23:30:03.418Z,8.20
2019-03-24T23:40:03.347Z,8.22
2019-03-24T23:50:03.049Z,8.40
